Vårt webkamera more information My webcam


webkamera på Randaberg more information webcam on Randaberg


Lynradar more information blitzortung!


Nedbørsradar  rain snow radar


Besøk vår andre værside:

Alternativ webside

Alternativ mobil

Regnskvett RandabergWebsite of another weatherstation



Ikke nødvendig med spesiell oppmerksomhet.    Det er ingen advarsler

Nære METAR rapporter

   
ENHD - Haugesund
oppdatert: 18-11-2018 02:20
Overskyet  
Overskyet  
   Vind: ØSØ 1.5 m/s
Vind: ØSØ 1.5 m/s
Temperatur: 6°C
Wind Chill: 5°C
Duggpunkt: 3°C
Fuktighet: 81%
Barometer: 1040 hPa
Skyer: Overskyet
Sikt: 6 km
Skydetaljer: Overskyet 426.7 m
ENHD 180120Z AUTO 11003KT 6000 OVC014/// 06/03 Q1040
ENZV - Randaberg
oppdatert: 18-11-2018 01:50
Klart  
Klart  
   Vind: Sør 1 m/s
Vind: Sør 1 m/s
Temperatur: 3°C
Duggpunkt: 3°C
Fuktighet: 100%
Barometer: 1040 hPa
Sikt: More than 10 km
Skydetaljer: Klart
ENZV 180050Z 19002KT CAVOK 03/03 Q1040
ENBR - Bergen
oppdatert: 18-11-2018 01:50
For det meste skyet  
For det meste skyet  
   Vind: varierer 1 m/s
Vind: varierer 1 m/s
Temperatur: 7°C
Duggpunkt: 4°C
Fuktighet: 81%
Barometer: 1040 hPa
Skyer: For det meste skyet
Sikt: More than 10 km
Skydetaljer: For det meste skyet 426.7 m
ENBR 180050Z VRB02KT 9999 BKN014 07/04 Q1040 RMK WIND 1200FT VRB02KT
ENCN - Kristiansand
oppdatert: 18-11-2018 02:20
Overskyet  
Overskyet  
   Vind: Nord 1.5 m/s
Vind: Nord 1.5 m/s
Temperatur: 3°C
Wind Chill: 2°C
Duggpunkt: 3°C
Fuktighet: 100%
Barometer: 1041 hPa
Skyer: Overskyet
Sikt: More than 10 km
Skydetaljer: For det meste skyet 182.9 m,
Overskyet 426.7 m
ENCN 180120Z AUTO 01003KT 330V060 9999 BKN006/// OVC014/// 03/03 Q1041
ENGM - Oslo
oppdatert: 18-11-2018 02:20
Tåke, For det meste skyet  
Tåke, For det meste skyet  
   Vind: varierer 0.5 m/s
Vind: varierer 0.5 m/s
Temperatur: 1°C
Duggpunkt: 1°C
Fuktighet: 100%
Barometer: 1041 hPa
Skyer: For det meste skyet
Sikt: 1 km
Skydetaljer: For det meste skyet 61 m
ENGM 180120Z VRB01KT 0900 0450SW R19R/1100U R01R/P2000N FG BKN002 01/01 Q1041
ENVA - Trondheim
oppdatert: 18-11-2018 02:20
Tåke, For det meste skyet  
Tåke, For det meste skyet  
   Vind: SSØ 3.1 m/s
Vind: SSØ 3.1 m/s
Temperatur: 3°C
Wind Chill: 0°C
Duggpunkt: 3°C
Fuktighet: 100%
Barometer: 1043 hPa
Skyer: For det meste skyet
Sikt: 0 km
Skydetaljer: Delvis Skyet,
For det meste skyet 152.4 m
ENVA 180120Z 15006KT 0200 R09/P2000N R27/0700N FG SCT000 BKN005 03/03 Q1043 RMK WIND 670FT 17005KT

Script utviklet av  Saratoga-weather.org Tilrettelagt for malen av  Weerstation Leuven

Du finner vår vær info også på:

European Weather Network

WeatherCloud

Weather Underground

Citizen Weather Observer Program (CWOP)

Utstyr vi bruker:

Værstsjon
Oregon scientific WMR 300

Værprogram
Meteobridge

Oregon scientific WMR 300

Meteobridge